createdAt,value
2017-11-04T00:01:10.926Z,94659.73
2017-11-04T00:03:39.460Z,94666.00
2017-11-04T00:06:08.074Z,94658.84
2017-11-04T00:08:36.539Z,94656.36
2017-11-04T00:11:05.184Z,94660.91
2017-11-04T00:13:33.801Z,94658.89
2017-11-04T00:16:02.226Z,94663.30
2017-11-04T00:18:30.697Z,94659.03
2017-11-04T00:21:00.188Z,94659.73
2017-11-04T00:23:28.695Z,94661.55
2017-11-04T00:25:57.364Z,94656.80
2017-11-04T00:28:26.082Z,94651.80
2017-11-04T00:30:54.592Z,94652.13
2017-11-04T00:33:22.995Z,94650.80
2017-11-04T00:35:51.360Z,94651.80
2017-11-04T00:38:19.740Z,94647.48
2017-11-04T00:40:48.139Z,94647.19
2017-11-04T00:43:16.527Z,94644.53
2017-11-04T00:45:44.884Z,94637.27
2017-11-04T00:48:13.248Z,94637.08
2017-11-04T00:50:41.608Z,94633.03
2017-11-04T00:53:10.004Z,94635.48
2017-11-04T00:55:38.379Z,94630.20
2017-11-04T00:58:06.754Z,94625.16
2017-11-04T01:00:35.150Z,94622.94
2017-11-04T01:03:03.509Z,94611.66
2017-11-04T01:05:31.872Z,94610.06
2017-11-04T01:08:00.278Z,94605.56
2017-11-04T01:10:28.644Z,94609.94
2017-11-04T01:12:57.112Z,94598.08
2017-11-04T01:15:25.490Z,94598.34
2017-11-04T01:17:53.852Z,94602.95
2017-11-04T01:20:22.962Z,94605.40
2017-11-04T01:22:51.336Z,94604.37
2017-11-04T01:25:19.692Z,94597.19
2017-11-04T01:27:48.052Z,94596.37
2017-11-04T01:30:16.432Z,94592.88
2017-11-04T01:32:44.825Z,94583.56
2017-11-04T01:35:13.203Z,94584.28
2017-11-04T01:37:41.594Z,94583.73
2017-11-04T01:40:09.956Z,94583.57
2017-11-04T01:42:38.340Z,94580.00
2017-11-04T01:45:06.702Z,94572.13
2017-11-04T01:47:35.138Z,94572.91
2017-11-04T01:50:03.543Z,94572.52
2017-11-04T01:52:31.932Z,94572.40
2017-11-04T01:55:00.311Z,94566.66
2017-11-04T01:57:28.689Z,94571.67
2017-11-04T01:59:57.072Z,94564.06
2017-11-04T02:02:25.438Z,94563.50
2017-11-04T02:04:53.832Z,94565.38
2017-11-04T02:07:22.197Z,94560.02
2017-11-04T02:09:50.556Z,94562.59
2017-11-04T02:12:18.937Z,94565.66
2017-11-04T02:14:47.301Z,94551.41
2017-11-04T02:17:15.700Z,94552.66
2017-11-04T02:19:44.098Z,94548.20
2017-11-04T02:22:12.460Z,94544.98
2017-11-04T02:24:40.855Z,94534.00
2017-11-04T02:27:09.253Z,94536.56
2017-11-04T02:29:37.628Z,94531.81
2017-11-04T02:32:06.110Z,94526.60
2017-11-04T02:34:34.491Z,94528.02
2017-11-04T02:37:02.855Z,94524.44
2017-11-04T02:39:31.211Z,94518.52
2017-11-04T02:41:59.718Z,94518.91
2017-11-04T02:44:28.092Z,94512.23
2017-11-04T02:46:56.450Z,94508.29
2017-11-04T02:49:24.843Z,94505.36
2017-11-04T02:51:53.215Z,94511.13
2017-11-04T02:54:21.608Z,94508.48
2017-11-04T02:56:50.005Z,94503.61
2017-11-04T02:59:18.397Z,94499.25
2017-11-04T03:01:46.764Z,94493.36
2017-11-04T03:04:15.126Z,94489.55
2017-11-04T03:06:43.510Z,94491.79
2017-11-04T03:09:11.878Z,94488.39
2017-11-04T03:11:40.268Z,94491.48
2017-11-04T03:14:08.677Z,94480.11
2017-11-04T03:16:37.045Z,94477.77
2017-11-04T03:19:05.455Z,94484.75
2017-11-04T03:21:33.817Z,94480.92
2017-11-04T03:24:02.201Z,94473.05
2017-11-04T03:26:30.575Z,94477.09
2017-11-04T03:28:58.940Z,94476.21
2017-11-04T03:31:27.334Z,94466.56
2017-11-04T03:33:55.708Z,94479.89
2017-11-04T03:36:24.108Z,94470.55
2017-11-04T03:38:52.475Z,94458.81
2017-11-04T03:41:20.845Z,94465.30
2017-11-04T03:43:49.204Z,94461.06
2017-11-04T03:46:17.588Z,94454.81
2017-11-04T03:48:45.985Z,94457.65
2017-11-04T03:51:14.372Z,94459.63
2017-11-04T03:53:42.734Z,94448.67
2017-11-04T03:56:11.085Z,94448.78
2017-11-04T03:58:39.455Z,94450.17
2017-11-04T04:01:07.838Z,94445.42
2017-11-04T04:03:36.218Z,94449.20
2017-11-04T04:06:04.584Z,94455.09
2017-11-04T04:08:32.963Z,94445.55
2017-11-04T04:11:01.337Z,94441.91
2017-11-04T04:13:29.810Z,94444.72
2017-11-04T04:15:58.172Z,94427.88
2017-11-04T04:18:26.536Z,94434.63
2017-11-04T04:20:54.899Z,94439.44
2017-11-04T04:23:23.258Z,94438.86
2017-11-04T04:25:51.676Z,94432.70
2017-11-04T04:28:20.043Z,94430.18
2017-11-04T04:30:48.417Z,94431.84
2017-11-04T04:33:16.770Z,94423.93
2017-11-04T04:35:45.124Z,94417.40
2017-11-04T04:38:13.506Z,94420.29
2017-11-04T04:40:41.990Z,94420.14
2017-11-04T04:43:10.376Z,94415.48
2017-11-04T04:45:38.726Z,94420.77
2017-11-04T04:48:07.094Z,94429.94
2017-11-04T04:50:35.455Z,94432.16
2017-11-04T04:53:03.853Z,94425.81
2017-11-04T04:55:32.214Z,94432.45
2017-11-04T04:58:00.609Z,94433.95
2017-11-04T05:00:29.004Z,94433.66
2017-11-04T05:02:57.387Z,94424.28
2017-11-04T05:05:25.748Z,94429.59
2017-11-04T05:07:54.135Z,94420.58
2017-11-04T05:10:22.495Z,94417.43
2017-11-04T05:12:50.858Z,94418.69
2017-11-04T05:15:19.210Z,94426.20
2017-11-04T05:17:47.611Z,94415.30
2017-11-04T05:20:15.957Z,94421.20
2017-11-04T05:22:44.335Z,94419.80
2017-11-04T05:25:12.839Z,94421.11
2017-11-04T05:27:41.192Z,94409.14
2017-11-04T05:30:09.555Z,94407.83
2017-11-04T05:32:37.907Z,94400.61
2017-11-04T05:35:06.266Z,94405.34
2017-11-04T05:37:34.659Z,94397.31
2017-11-04T05:40:03.059Z,94390.70
2017-11-04T05:42:31.410Z,94392.55
2017-11-04T05:44:59.903Z,94388.07
2017-11-04T05:47:28.256Z,94392.30
2017-11-04T05:49:56.627Z,94393.85
2017-11-04T05:52:25.037Z,94391.08
2017-11-04T05:54:53.387Z,94399.14
2017-11-04T05:57:21.747Z,94398.66
2017-11-04T05:59:50.129Z,94394.34
2017-11-04T06:02:18.517Z,94391.95
2017-11-04T06:04:46.868Z,94399.34
2017-11-04T06:07:15.230Z,94395.45
2017-11-04T06:09:43.698Z,94399.66
2017-11-04T06:12:12.051Z,94388.89
2017-11-04T06:14:40.411Z,94388.21
2017-11-04T06:17:08.773Z,94385.66
2017-11-04T06:19:37.139Z,94395.92
2017-11-04T06:22:05.652Z,94385.41
2017-11-04T06:24:34.034Z,94383.41
2017-11-04T06:27:02.411Z,94371.83
2017-11-04T06:29:30.759Z,94373.02
2017-11-04T06:31:59.142Z,94365.53
2017-11-04T06:34:27.536Z,94364.61
2017-11-04T06:36:56.674Z,94358.25
2017-11-04T06:39:25.261Z,94354.89
2017-11-04T06:41:53.625Z,94354.80
2017-11-04T06:44:21.978Z,94358.80
2017-11-04T06:46:50.345Z,94348.53
2017-11-04T06:49:18.710Z,94362.44
2017-11-04T06:51:47.091Z,94363.63
2017-11-04T06:54:15.490Z,94357.33
2017-11-04T06:56:43.867Z,94365.38
2017-11-04T06:59:12.255Z,94359.31
2017-11-04T07:01:40.608Z,94352.50
2017-11-04T07:04:08.997Z,94362.75
2017-11-04T07:06:37.370Z,94360.98
2017-11-04T07:09:05.747Z,94363.22
2017-11-04T07:11:34.098Z,94363.66
2017-11-04T07:14:02.555Z,94358.10
2017-11-04T07:16:30.899Z,94361.55
2017-11-04T07:18:59.259Z,94357.64
2017-11-04T07:21:27.649Z,94352.01
2017-11-04T07:23:55.999Z,94354.80
2017-11-04T07:26:24.368Z,94352.80
2017-11-04T07:28:53.600Z,94349.41
2017-11-04T07:31:21.983Z,94345.83
2017-11-04T07:33:50.336Z,94348.48
2017-11-04T07:36:18.691Z,94359.56
2017-11-04T07:38:47.085Z,94360.52
2017-11-04T07:41:15.441Z,94361.02
2017-11-04T07:43:43.842Z,94363.08
2017-11-04T07:46:12.239Z,94363.95
2017-11-04T07:48:40.623Z,94362.23
2017-11-04T07:51:08.992Z,94356.20
2017-11-04T07:53:37.385Z,94351.20
2017-11-04T07:56:05.752Z,94359.44
2017-11-04T07:58:34.223Z,94353.67
2017-11-04T08:01:02.602Z,94347.95
2017-11-04T08:03:30.953Z,94350.63
2017-11-04T08:05:59.356Z,94352.05
2017-11-04T08:08:27.735Z,94353.73
2017-11-04T08:10:56.112Z,94347.21
2017-11-04T08:13:24.492Z,94345.27
2017-11-04T08:15:52.867Z,94336.42
2017-11-04T08:18:21.334Z,94332.18
2017-11-04T08:20:49.700Z,94330.52
2017-11-04T08:23:18.089Z,94330.69
2017-11-04T08:25:46.456Z,94320.99
2017-11-04T08:28:14.844Z,94319.11
2017-11-04T08:30:45.294Z,94329.23
2017-11-04T08:33:13.657Z,94328.38
2017-11-04T08:35:42.053Z,94327.09
2017-11-04T08:38:10.460Z,94325.07
2017-11-04T08:40:38.822Z,94316.23
2017-11-04T08:43:07.197Z,94313.89
2017-11-04T08:45:35.632Z,94315.00
2017-11-04T08:48:04.029Z,94304.48
2017-11-04T08:50:32.396Z,94298.85
2017-11-04T08:53:00.769Z,94303.94
2017-11-04T08:55:29.138Z,94294.80
2017-11-04T08:57:57.508Z,94289.77
2017-11-04T09:00:25.895Z,94290.70
2017-11-04T09:02:54.275Z,94290.56
2017-11-04T09:05:24.587Z,94294.02
2017-11-04T09:07:53.028Z,94289.11
2017-11-04T13:21:49.875Z,94104.34
2017-11-04T13:24:18.342Z,94102.13
2017-11-04T13:26:46.721Z,94089.95
2017-11-04T13:29:15.099Z,94093.53
2017-11-04T13:31:43.452Z,94100.95
2017-11-04T13:34:11.819Z,94104.22
2017-11-04T13:36:40.196Z,94109.64
2017-11-04T13:39:08.578Z,94108.90
2017-11-04T13:41:36.981Z,94115.11
2017-11-04T13:44:05.522Z,94111.16
2017-11-04T13:46:33.876Z,94122.27
2017-11-04T13:49:02.279Z,94120.17
2017-11-04T13:51:30.644Z,94115.35
2017-11-04T13:53:58.999Z,94118.34
2017-11-04T13:56:27.367Z,94122.25
2017-11-04T13:58:55.734Z,94118.80
2017-11-04T14:01:24.979Z,94124.80
2017-11-04T14:03:53.331Z,94137.80
2017-11-04T14:06:21.718Z,94138.95
2017-11-04T14:08:50.111Z,94137.61
2017-11-04T14:11:18.468Z,94144.12
2017-11-04T14:13:46.820Z,94141.84
2017-11-04T14:16:15.192Z,94132.31
2017-11-04T14:18:43.550Z,94132.08
2017-11-04T14:21:13.333Z,94127.03
2017-11-04T14:23:41.743Z,94134.99
2017-11-04T14:26:10.259Z,94129.06
2017-11-04T14:28:38.762Z,94130.06
2017-11-04T14:31:07.128Z,94134.03
2017-11-04T14:33:35.539Z,94128.23
2017-11-04T14:36:03.906Z,94128.23
2017-11-04T14:38:32.277Z,94125.89
2017-11-04T14:41:00.663Z,94119.37
2017-11-04T14:43:29.030Z,94122.20
2017-11-04T14:45:57.385Z,94120.05
2017-11-04T14:48:25.760Z,94124.42
2017-11-04T14:50:54.173Z,94117.80
2017-11-04T14:53:22.515Z,94120.92
2017-11-04T14:55:50.931Z,94116.92
2017-11-04T14:58:19.331Z,94111.07
2017-11-04T15:00:47.713Z,94116.69
2017-11-04T15:03:16.079Z,94115.27
2017-11-04T15:05:44.434Z,94109.17
2017-11-04T15:08:12.795Z,94106.03
2017-11-04T15:10:41.155Z,94111.32
2017-11-04T15:13:09.528Z,94115.63
2017-11-04T15:15:37.880Z,94110.39
2017-11-04T15:18:06.245Z,94114.45
2017-11-04T15:20:34.632Z,94123.26
2017-11-04T15:23:03.019Z,94123.50
2017-11-04T15:25:31.430Z,94123.95
2017-11-04T15:27:59.795Z,94127.48
2017-11-04T15:30:28.164Z,94128.63
2017-11-04T15:32:56.565Z,94134.33
2017-11-04T15:35:24.936Z,94127.23
2017-11-04T15:37:53.296Z,94120.51
2017-11-04T15:40:21.660Z,94120.78
2017-11-04T15:42:50.103Z,94118.58
2017-11-04T15:45:18.512Z,94123.14
2017-11-04T15:47:46.873Z,94125.08
2017-11-04T15:50:15.241Z,94121.35
2017-11-04T15:52:43.599Z,94115.91
2017-11-04T15:55:11.968Z,94113.70
2017-11-04T15:57:40.427Z,94118.35
2017-11-04T16:00:09.724Z,94121.21
2017-11-04T16:02:38.212Z,94127.70
2017-11-04T16:05:06.584Z,94119.32
2017-11-04T16:07:35.052Z,94116.50
2017-11-04T16:10:03.466Z,94109.90
2017-11-04T16:12:31.840Z,94116.12
2017-11-04T16:15:00.250Z,94116.52
2017-11-04T16:17:28.654Z,94119.63
2017-11-04T16:19:57.007Z,94123.89
2017-11-04T16:22:25.415Z,94124.30
2017-11-04T16:24:53.789Z,94126.99
2017-11-04T16:27:22.185Z,94132.30
2017-11-04T16:29:50.557Z,94125.44
2017-11-04T16:32:18.969Z,94117.30
2017-11-04T16:34:47.339Z,94112.00
2017-11-04T16:37:15.704Z,94107.48
2017-11-04T16:39:44.067Z,94113.80
2017-11-04T16:42:12.440Z,94120.02
2017-11-04T16:44:40.831Z,94114.96
2017-11-04T16:47:09.187Z,94109.78
2017-11-04T16:49:37.576Z,94112.77
2017-11-04T16:52:05.956Z,94107.33
2017-11-04T16:54:34.341Z,94109.78
2017-11-04T16:57:02.732Z,94116.38
2017-11-04T16:59:31.101Z,94116.13
2017-11-04T17:01:59.456Z,94122.84
2017-11-04T17:04:29.546Z,94125.80
2017-11-04T17:06:57.940Z,94117.92
2017-11-04T17:09:26.358Z,94122.97
2017-11-04T17:11:54.721Z,94127.74
2017-11-04T17:14:23.108Z,94115.19
2017-11-04T17:16:51.481Z,94112.64
2017-11-04T17:19:19.829Z,94114.95
2017-11-04T17:21:48.238Z,94115.07
2017-11-04T17:24:16.642Z,94115.06
2017-11-04T17:26:45.033Z,94109.77
2017-11-04T17:29:13.405Z,94107.06
2017-11-04T17:31:41.909Z,94119.34
2017-11-04T17:34:10.325Z,94112.23
2017-11-04T17:36:38.674Z,94106.81
2017-11-04T17:39:07.049Z,94097.50
2017-11-04T17:41:35.414Z,94108.06
2017-11-04T17:44:03.791Z,94110.66
2017-11-04T17:46:32.325Z,94099.77
2017-11-04T17:49:00.869Z,94089.17
2017-11-04T17:51:29.346Z,94092.69
2017-11-04T17:53:57.699Z,94083.09
2017-11-04T17:56:26.121Z,94084.75
2017-11-04T17:58:54.602Z,94087.75
2017-11-04T18:01:23.006Z,94083.07
2017-11-04T18:03:51.380Z,94094.03
2017-11-04T18:06:19.778Z,94079.42
2017-11-04T18:08:48.157Z,94085.25
2017-11-04T18:11:16.551Z,94082.39
2017-11-04T18:13:44.961Z,94078.40
2017-11-04T18:16:13.406Z,94072.28
2017-11-04T18:18:41.784Z,94079.36
2017-11-04T18:21:10.229Z,94078.06
2017-11-04T18:23:38.592Z,94073.97
2017-11-04T18:26:07.037Z,94074.98
2017-11-04T18:28:35.395Z,94076.17
2017-11-04T18:31:03.812Z,94070.58
2017-11-04T18:33:33.107Z,94083.66
2017-11-04T18:36:01.489Z,94074.81
2017-11-04T18:38:29.916Z,94070.13
2017-11-04T18:40:58.283Z,94079.29
2017-11-04T18:43:26.704Z,94076.73
2017-11-04T18:45:55.074Z,94081.03
2017-11-04T18:48:23.571Z,94075.61
2017-11-04T18:50:51.938Z,94071.91
2017-11-04T18:53:20.337Z,94081.49
2017-11-04T18:55:48.690Z,94083.20
2017-11-04T18:58:17.068Z,94080.16
2017-11-04T19:00:45.509Z,94088.91
2017-11-04T19:03:13.892Z,94074.01
2017-11-04T19:05:42.265Z,94079.81
2017-11-04T19:08:10.625Z,94092.13
2017-11-04T19:10:39.122Z,94085.38
2017-11-04T19:13:07.592Z,94069.70
2017-11-04T19:15:35.960Z,94074.08
2017-11-04T19:18:04.344Z,94081.95
2017-11-04T19:20:32.744Z,94076.23
2017-11-04T19:23:01.124Z,94079.45
2017-11-04T19:25:29.491Z,94085.30
2017-11-04T19:27:57.865Z,94086.63
2017-11-04T19:30:26.248Z,94072.08
2017-11-04T19:32:54.671Z,94088.03
2017-11-04T19:35:23.028Z,94085.41
2017-11-04T19:37:51.396Z,94072.00
2017-11-04T19:40:19.771Z,94073.19
2017-11-04T19:42:48.141Z,94069.92
2017-11-04T19:45:16.521Z,94076.16
2017-11-04T19:47:44.919Z,94070.13
2017-11-04T19:50:13.321Z,94064.84
2017-11-04T19:52:41.722Z,94065.84
2017-11-04T19:55:10.079Z,94059.62
2017-11-04T19:57:38.567Z,94066.72
2017-11-04T20:00:06.984Z,94072.42
2017-11-04T20:02:35.468Z,94066.19
2017-11-04T20:05:03.833Z,94069.59
2017-11-04T20:07:32.229Z,94075.00
2017-11-04T20:10:00.594Z,94076.74
2017-11-04T20:12:28.979Z,94073.62
2017-11-04T20:14:57.373Z,94078.08
2017-11-04T20:17:25.769Z,94074.14
2017-11-04T20:19:54.134Z,94080.00
2017-11-04T20:22:22.551Z,94075.78
2017-11-04T20:24:50.922Z,94070.64
2017-11-04T20:27:19.329Z,94071.80
2017-11-04T20:29:47.706Z,94073.86
2017-11-04T20:32:16.272Z,94082.11
2017-11-04T20:34:44.644Z,94078.47
2017-11-04T20:37:13.120Z,94075.44
2017-11-04T20:39:41.620Z,94066.72
2017-11-04T20:42:10.014Z,94071.42
2017-11-04T20:44:38.404Z,94069.92
2017-11-04T20:47:06.801Z,94058.90
2017-11-04T20:49:35.258Z,94059.28
2017-11-04T20:52:03.676Z,94057.46
2017-11-04T20:54:32.049Z,94063.02
2017-11-04T20:57:00.420Z,94055.39
2017-11-04T20:59:28.825Z,94063.16
2017-11-04T21:01:57.284Z,94054.48
2017-11-04T21:04:25.634Z,94063.02
2017-11-04T21:06:53.999Z,94057.84
2017-11-04T21:09:22.369Z,94057.32
2017-11-04T21:11:50.759Z,94046.05
2017-11-04T21:14:19.339Z,94049.65
2017-11-04T21:16:47.711Z,94048.02
2017-11-04T21:19:16.078Z,94050.70
2017-11-04T21:21:44.494Z,94050.17
2017-11-04T21:24:12.869Z,94046.00
2017-11-04T21:26:41.383Z,94047.00
2017-11-04T21:29:09.810Z,94043.39
2017-11-04T21:31:38.168Z,94042.05
2017-11-04T21:34:06.568Z,94041.42
2017-11-04T21:36:35.018Z,94042.34
2017-11-04T21:39:04.649Z,94034.67
2017-11-04T21:41:33.185Z,94035.55
2017-11-04T21:44:01.862Z,94050.11
2017-11-04T21:46:30.245Z,94041.54
2017-11-04T21:48:58.643Z,94048.20
2017-11-04T21:51:27.016Z,94043.83
2017-11-04T21:53:55.446Z,94038.64
2017-11-04T21:56:23.872Z,94048.55
2017-11-04T21:58:52.261Z,94043.93
2017-11-04T22:01:20.676Z,94039.59
2017-11-04T22:03:49.065Z,94037.98
2017-11-04T22:06:17.492Z,94041.74
2017-11-04T22:08:45.890Z,94035.63
2017-11-04T22:11:14.294Z,94034.63
2017-11-04T22:13:42.691Z,94040.86
2017-11-04T22:16:11.072Z,94037.73
2017-11-04T22:18:39.432Z,94039.07
2017-11-04T22:21:07.796Z,94036.88
2017-11-04T22:23:36.172Z,94038.95
2017-11-04T22:26:04.552Z,94042.00
2017-11-04T22:28:32.929Z,94034.44
2017-11-04T22:31:01.332Z,94040.08
2017-11-04T22:33:29.729Z,94043.23
2017-11-04T22:35:58.085Z,94037.18
2017-11-04T22:38:26.453Z,94040.86
2017-11-04T22:40:54.959Z,94028.42
2017-11-04T22:43:23.339Z,94034.14
2017-11-04T22:45:51.744Z,94032.84
2017-11-04T22:48:20.108Z,94032.25
2017-11-04T22:50:48.459Z,94028.18
2017-11-04T22:53:16.843Z,94026.30
2017-11-04T22:55:45.204Z,94023.87
2017-11-04T22:58:13.574Z,94024.38
2017-11-04T23:00:41.938Z,94014.64
2017-11-04T23:03:10.324Z,94013.27
2017-11-04T23:05:38.692Z,94017.54
2017-11-04T23:08:07.060Z,94018.42
2017-11-04T23:10:35.441Z,94011.52
2017-11-04T23:13:03.833Z,94004.05
2017-11-04T23:15:32.224Z,94006.20
2017-11-04T23:18:00.608Z,94001.84
2017-11-04T23:20:28.987Z,93998.56
2017-11-04T23:22:57.353Z,94008.62
2017-11-04T23:25:25.752Z,94007.95
2017-11-04T23:27:54.113Z,94004.15
2017-11-04T23:30:22.497Z,93998.18
2017-11-04T23:32:50.868Z,93993.28
2017-11-04T23:35:19.220Z,93999.79
2017-11-04T23:37:47.596Z,94001.14
2017-11-04T23:40:15.978Z,93996.20
2017-11-04T23:42:44.338Z,93999.09
2017-11-04T23:45:12.727Z,93995.41
2017-11-04T23:47:41.088Z,93987.44
2017-11-04T23:50:09.480Z,93984.59
2017-11-04T23:52:37.848Z,93978.52
2017-11-04T23:55:06.232Z,93976.97
2017-11-04T23:57:34.597Z,93977.67
